This is the latest recevied weather packets stored in our database for station/object KO4ZGL-13. If no packets are shown the sender has not sent any weather packets the latest 10 day(s).
| Time | Temp. | Humidity | Pressure | Rain* | Wind** | Luminosity | Snow |
|---|---|---|---|---|---|---|---|
| 1788377439 | 35.56° C | 64% | 1017.6 hPa | 0 mm | - | 383 W/m² | - |
| 1788377138 | 36.67° C | 62% | 1017.7 hPa | 0 mm | - | 378 W/m² | - |
| 1788376836 | 36.67° C | 64% | 1017.9 hPa | 0 mm | - | 535 W/m² | - |
| 1788376532 | 36.11° C | 61% | 1018 hPa | 0 mm | - | 506 W/m² | - |
| 1788376227 | 35.56° C | 61% | 1017.8 hPa | 0 mm | - | 528 W/m² | - |
| 1788375922 | 35.56° C | 62% | 1017.8 hPa | 0 mm | - | 544 W/m² | - |
| 1788375618 | 36.11° C | 65% | 1018.2 hPa | 0 mm | - | 537 W/m² | - |
| 1788375314 | 36.11° C | 63% | 1018 hPa | 0 mm | - | 595 W/m² | - |
| 1788375009 | 35.56° C | 65% | 1018.1 hPa | 0 mm | - | 601 W/m² | - |
| 1788374704 | 35.56° C | 67% | 1017.9 hPa | 0 mm | - | 636 W/m² | - |
| 1788374399 | 35° C | 66% | 1018.2 hPa | 0 mm | - | 666 W/m² | - |
| 1788374096 | 34.44° C | 71% | 1018.3 hPa | 0 mm | - | 663 W/m² | - |
| 1788373791 | 35° C | 69% | 1018.4 hPa | 0 mm | - | 132 W/m² | - |
| 1788373487 | 35.56° C | 66% | 1018.4 hPa | 0 mm | - | 188 W/m² | - |
| 1788373183 | 35.56° C | 67% | 1018.4 hPa | 0 mm | - | 679 W/m² | - |
| 1788372878 | 36.11° C | 64% | 1018.4 hPa | 0 mm | - | 390 W/m² | - |
| 1788372573 | 35° C | 65% | 1018.5 hPa | 0 mm | - | 642 W/m² | - |
| 1788372268 | 35° C | 65% | 1018.3 hPa | 0 mm | - | 611 W/m² | - |
| 1788371964 | 34.44° C | 67% | 1018.4 hPa | 0 mm | - | 615 W/m² | - |
| 1788371659 | 33.89° C | 68% | 1018.2 hPa | 0 mm | - | 603 W/m² | - |
| 1788371354 | 33.89° C | 71% | 1018.3 hPa | 0 mm | - | 130 W/m² | - |
| 1788371051 | 35.56° C | 68% | 1018.3 hPa | 0 mm | - | 157 W/m² | - |
| 1788370747 | 35.56° C | 68% | 1018.4 hPa | 0 mm | - | 677 W/m² | - |
| 1788370446 | 36.11° C | 63% | 1018.5 hPa | 0 mm | - | 225 W/m² | - |
| 1788370141 | 35.56° C | 66% | 1018.3 hPa | 0 mm | - | 642 W/m² | - |
* Rain latest hour (hover to see other rain measurements)
** Current wind speed in m/s (hover to see current wind gust speed)